Accueil
METAR-TAF:

METAR-TAF

Aéroports :

Aérodrome de Koumac

Koumac, Nouvelle-Calédonie

latitude: 20-34S, longitude: 164-17E, altitude: 23 m

METAR: absent

Heure: 08:03 (21:03 UTC)

Prévision

Le bulletin a été fait il y a 4 heures et 3 minutes, à 17:00 UTC
Prévision valable du 22 à 18 UTC au 23 à 18 UTC
Vent 8 kt de sud-est
Visibilité 10 km ou plus
Quelques nuages à une hauteur de 2500 ft
Nuages épars à une hauteur de 7000 ft
Evoluant progressivement
du 22 à 22 UTC au 22 à 24 UTC
Vent 12 kt de sud/sud-est avec des rafales jusqu'à 25 kt
Evoluant progressivement
du 23 à 08 UTC au 23 à 10 UTC
Vent 8 kt de sud-est

TAF: NWWK 221700Z 2218/2318 14008KT 9999 FEW025 SCT070 BECMG 2222/2224 16012G25KT BECMG 2308/2310 13008KT

Observations et prévisions météorologiques de plus de 4000 aéroports (messages METAR et TAF).

Les stations disponibles sont représentées par des disques jaunes et rouges sur la carte.

Passer la souris dessus pour voir le nom de la station.

Cliquer dessus pour voir les observations et prévisions météorologiques.

Pour changer de carte: cliquez sur les boutons verts avec une croix noire pour zoomer, sur le bouton vert avec un tiret pour effectuer un zoom arrière, ou sur les flèches vertes pour les cartes adjacentes.


METAR-TAF: